Time;durP1;ratioP1;P1;durP2;ratioP2;P2;SDS_P1;SDS_P2;PMS_P1;PMS_P2;Temp;Humidity;BMP_temperature;BMP_pressure;BME280_temperature;BME280_humidity;BME280_pressure;Samples;Min_cycle;Max_cycle;Signal;HPM_P1;HPM_P2
2024/04/15 00:01:16;;;;;;;;;;;18.40;34.90;20.00;98229.00;;;;5596723;25;2237;-39
2024/04/15 00:03:44;;;;;;;;;;;18.30;35.20;19.90;98218.00;;;;5596189;25;1957;-41
2024/04/15 00:06:16;;;;;;;;;;;18.20;35.50;19.90;98201.00;;;;5596404;25;2307;-41
2024/04/15 00:08:43;;;;;;;;;;;18.30;35.10;19.90;98189.00;;;;5594849;25;2316;-39
2024/04/15 00:11:14;;;;;;;;;;;18.30;34.90;20.00;98192.00;;;;5592557;25;2325;-40
2024/04/15 00:13:41;;;;;;;;;;;18.30;34.80;20.00;98185.00;;;;5595481;25;2193;-41
2024/04/15 00:16:11;;;;;;;;;;;18.30;34.60;20.00;98193.00;;;;5597238;25;2263;-39
2024/04/15 00:18:39;;;;;;;;;;;18.30;34.50;20.00;98187.00;;;;5595303;25;2231;-40
2024/04/15 00:21:10;;;;;;;;;;;18.30;34.40;20.00;98186.00;;;;5595907;25;2317;-40
2024/04/15 00:23:41;;;;;;;;;;;18.40;34.40;20.00;98176.00;;;;5595704;25;2071;-39
2024/04/15 00:26:11;;;;;;;;;;;18.40;34.20;20.00;98161.00;;;;5596871;25;2106;-40
2024/04/15 00:28:38;;;;;;;;;;;18.40;34.80;19.90;98152.00;;;;5581333;25;2246;-40
2024/04/15 00:31:08;;;;;;;;;;;18.30;35.00;19.90;98147.00;;;;5586488;25;2130;-38
2024/04/15 00:33:35;;;;;;;;;;;18.30;35.60;19.90;98149.00;;;;5595949;25;2216;-40
2024/04/15 00:36:06;;;;;;;;;;;18.20;36.30;19.80;98140.00;;;;5585921;25;1977;-39
2024/04/15 00:38:33;;;;;;;;;;;18.20;36.10;19.80;98131.00;;;;5581217;25;2193;-40
2024/04/15 00:41:06;;;;;;;;;;;18.20;36.30;19.80;98132.00;;;;5586228;25;2060;-40
2024/04/15 00:43:33;;;;;;;;;;;18.10;35.80;19.80;98143.00;;;;5587665;25;2278;-41
2024/04/15 00:46:03;;;;;;;;;;;18.20;35.60;19.90;98148.00;;;;5592503;25;2272;-39
2024/04/15 00:48:31;;;;;;;;;;;18.20;35.40;19.90;98150.00;;;;5595611;25;2276;-39
2024/04/15 00:51:01;;;;;;;;;;;18.20;35.20;19.90;98147.00;;;;5590594;25;2248;-41
2024/04/15 00:53:28;;;;;;;;;;;18.20;35.00;19.90;98148.00;;;;5595755;25;2227;-39
2024/04/15 00:55:58;;;;;;;;;;;18.30;34.90;19.90;98143.00;;;;5595793;25;2336;-40
2024/04/15 00:58:28;;;;;;;;;;;18.30;34.80;19.90;98152.00;;;;5592167;25;2210;-39
2024/04/15 01:00:58;;;;;;;;;;;18.30;34.60;20.00;98127.00;;;;5589249;25;2456;-40
2024/04/15 01:03:25;;;;;;;;;;;18.30;34.60;19.90;98127.00;;;;5591657;25;2217;-39
2024/04/15 01:05:56;;;;;;;;;;;18.20;35.20;19.90;98128.00;;;;5595205;25;2123;-40
2024/04/15 01:08:23;;;;;;;;;;;18.20;35.60;19.90;98127.00;;;;5589545;25;3272;-42
2024/04/15 01:10:53;;;;;;;;;;;18.20;35.70;19.90;98125.00;;;;5592003;25;2127;-40
2024/04/15 01:13:29;;;;;;;;;;;18.20;35.20;19.90;98115.00;;;;5589106;25;2185;-38
2024/04/15 01:15:59;;;;;;;;;;;18.20;35.00;19.90;98115.00;;;;5595569;25;2399;-40
2024/04/15 01:18:28;;;;;;;;;;;18.20;34.90;19.90;98120.00;;;;5590793;25;2304;-39
2024/04/15 01:20:59;;;;;;;;;;;18.30;34.80;19.90;98115.00;;;;5594840;25;3343;-40
2024/04/15 01:23:27;;;;;;;;;;;18.30;34.60;19.90;98107.00;;;;5595731;25;2028;-40
2024/04/15 01:26:10;;;;;;;;;;;18.30;34.50;20.00;98090.00;;;;5594736;25;1871;-39
2024/04/15 01:28:37;;;;;;;;;;;18.30;34.40;20.00;98101.00;;;;5587286;25;3422;-40
2024/04/15 01:31:07;;;;;;;;;;;18.30;34.40;19.90;98087.00;;;;5591549;25;2208;-41
2024/04/15 01:33:35;;;;;;;;;;;18.30;35.00;19.90;98111.00;;;;5589784;25;2091;-40
2024/04/15 01:36:05;;;;;;;;;;;18.20;35.30;19.90;98109.00;;;;5590296;25;2367;-40
2024/04/15 01:38:32;;;;;;;;;;;18.20;35.50;19.90;98116.00;;;;5590129;25;2327;-41
2024/04/15 01:41:02;;;;;;;;;;;18.20;35.10;19.90;98122.00;;;;5588585;25;2328;-39
2024/04/15 01:43:32;;;;;;;;;;;18.20;35.10;19.90;98118.00;;;;5591085;25;2315;-41
2024/04/15 01:46:02;;;;;;;;;;;18.20;34.90;19.90;98106.00;;;;5588667;25;1990;-40
2024/04/15 01:48:29;;;;;;;;;;;18.30;34.80;19.90;98105.00;;;;5591513;25;1975;-41
2024/04/15 01:50:59;;;;;;;;;;;18.30;34.60;20.00;98109.00;;;;5589391;25;2164;-40
2024/04/15 01:53:26;;;;;;;;;;;18.30;34.50;20.00;98116.00;;;;5591443;25;2197;-39
2024/04/15 01:55:57;;;;;;;;;;;18.30;34.40;20.00;98135.00;;;;5592856;25;2411;-40
2024/04/15 01:58:24;;;;;;;;;;;18.30;34.30;19.90;98130.00;;;;5592218;25;2102;-40
2024/04/15 02:01:04;;;;;;;;;;;18.30;34.50;19.90;98126.00;;;;5594459;25;2421;-42
2024/04/15 02:03:32;;;;;;;;;;;18.30;34.80;19.90;98135.00;;;;5592193;25;2201;-41
2024/04/15 02:06:02;;;;;;;;;;;18.20;34.90;19.90;98134.00;;;;5592017;25;2360;-41
2024/04/15 02:08:29;;;;;;;;;;;18.20;34.80;19.90;98133.00;;;;5591557;25;2172;-41
2024/04/15 02:10:59;;;;;;;;;;;18.20;34.60;19.90;98119.00;;;;5589316;25;2313;-40
2024/04/15 02:13:26;;;;;;;;;;;18.20;34.60;19.90;98126.00;;;;5591959;25;2399;-41
2024/04/15 02:15:58;;;;;;;;;;;18.30;34.50;19.90;98113.00;;;;5589288;25;2397;-38
2024/04/15 02:18:26;;;;;;;;;;;18.30;34.40;20.00;98132.00;;;;5594861;25;2071;-40
2024/04/15 02:20:56;;;;;;;;;;;18.30;34.30;19.90;98116.00;;;;5589524;25;2177;-42
2024/04/15 02:23:23;;;;;;;;;;;18.30;34.20;19.90;98118.00;;;;5592520;25;2097;-40
2024/04/15 02:25:53;;;;;;;;;;;18.30;34.20;19.90;98115.00;;;;5592653;25;2228;-40
2024/04/15 02:28:20;;;;;;;;;;;18.30;34.40;19.90;98109.00;;;;5589306;25;2024;-40
2024/04/15 02:30:50;;;;;;;;;;;18.20;35.00;19.80;98101.00;;;;5591651;25;2470;-40
2024/04/15 02:33:21;;;;;;;;;;;18.20;35.50;19.80;98105.00;;;;5586322;25;2247;-40
2024/04/15 02:35:51;;;;;;;;;;;18.10;35.80;19.70;98101.00;;;;5590469;25;2093;-41
2024/04/15 02:38:18;;;;;;;;;;;18.10;36.00;19.70;98099.00;;;;5588519;25;2207;-40
2024/04/15 02:40:48;;;;;;;;;;;18.00;36.10;19.70;98070.00;;;;5592114;25;2170;-40
2024/04/15 02:43:15;;;;;;;;;;;18.00;35.90;19.70;98061.00;;;;5595141;25;2251;-41
2024/04/15 02:45:46;;;;;;;;;;;18.00;35.50;19.80;98059.00;;;;5592192;25;2088;-39
2024/04/15 02:48:13;;;;;;;;;;;18.10;35.40;19.80;98061.00;;;;5592679;25;2186;-40
2024/04/15 02:50:46;;;;;;;;;;;18.10;35.80;19.80;98064.00;;;;5591095;25;2340;-41
2024/04/15 02:53:13;;;;;;;;;;;18.20;35.10;19.80;98062.00;;;;5589802;25;2212;-40
2024/04/15 02:55:44;;;;;;;;;;;18.20;35.00;19.90;98049.00;;;;5590536;25;2181;-39
2024/04/15 02:58:11;;;;;;;;;;;18.20;34.70;19.80;98039.00;;;;5592196;25;2177;-40
2024/04/15 03:00:41;;;;;;;;;;;18.20;34.60;19.80;98048.00;;;;5591396;25;2180;-41
2024/04/15 03:03:08;;;;;;;;;;;18.20;34.50;19.80;98045.00;;;;5593503;25;2391;-40
2024/04/15 03:05:43;;;;;;;;;;;18.20;34.80;19.80;98049.00;;;;5588077;25;1961;-40
2024/04/15 03:08:14;;;;;;;;;;;18.20;35.20;19.80;98056.00;;;;5591529;25;2184;-39
2024/04/15 03:10:43;;;;;;;;;;;18.10;35.30;19.80;98059.00;;;;5591823;25;2016;-40
2024/04/15 03:13:13;;;;;;;;;;;18.20;35.00;19.80;98066.00;;;;5593557;25;2227;-41
2024/04/15 03:15:40;;;;;;;;;;;18.20;35.00;19.80;98067.00;;;;5592257;25;2270;-40
2024/04/15 03:18:10;;;;;;;;;;;18.20;34.80;19.80;98070.00;;;;5592775;25;2249;-39
2024/04/15 03:20:38;;;;;;;;;;;18.20;34.60;19.80;98058.00;;;;5591068;25;1968;-41
2024/04/15 03:23:08;;;;;;;;;;;18.20;34.50;19.80;98074.00;;;;5587503;25;1542;-38
2024/04/15 03:25:38;;;;;;;;;;;18.20;34.40;19.90;98064.00;;;;5592133;25;2360;-39
2024/04/15 03:28:08;;;;;;;;;;;18.20;34.30;19.90;98072.00;;;;5588238;25;3224;-39
2024/04/15 03:30:36;;;;;;;;;;;18.20;34.20;19.80;98070.00;;;;5592536;25;2240;-40
2024/04/15 03:33:06;;;;;;;;;;;18.20;34.80;19.80;98061.00;;;;5589321;25;2309;-40
2024/04/15 03:35:33;;;;;;;;;;;18.10;35.10;19.80;98062.00;;;;5588438;25;2927;-40
2024/04/15 03:38:06;;;;;;;;;;;18.10;35.60;19.80;98047.00;;;;5587675;25;2245;-41
2024/04/15 03:40:36;;;;;;;;;;;18.10;35.00;19.80;98054.00;;;;5592518;25;2250;-40
2024/04/15 03:43:09;;;;;;;;;;;18.10;34.90;19.80;98051.00;;;;5588893;25;2384;-41
2024/04/15 03:45:36;;;;;;;;;;;18.10;34.80;19.80;98058.00;;;;5592116;25;1946;-40
2024/04/15 03:48:07;;;;;;;;;;;18.20;34.60;19.80;98058.00;;;;5587688;25;2360;-39
2024/04/15 03:50:34;;;;;;;;;;;18.20;34.60;19.80;98043.00;;;;5583526;25;2193;-39
2024/04/15 03:53:04;;;;;;;;;;;18.20;34.40;19.80;98044.00;;;;5580080;25;2175;-40
2024/04/15 03:55:32;;;;;;;;;;;18.20;34.30;19.80;98044.00;;;;5589924;25;2242;-40
2024/04/15 03:58:02;;;;;;;;;;;18.20;34.20;19.80;98040.00;;;;5588255;25;2015;-40
2024/04/15 04:00:32;;;;;;;;;;;18.20;34.60;19.80;98045.00;;;;5585345;25;2398;-41
2024/04/15 04:03:02;;;;;;;;;;;18.10;35.00;19.70;98027.00;;;;5564832;25;2588;-41
2024/04/15 04:05:30;;;;;;;;;;;18.00;35.40;19.70;98011.00;;;;5578930;25;2190;-42
2024/04/15 04:08:00;;;;;;;;;;;18.10;35.20;19.70;98007.00;;;;5581553;25;2292;-40
2024/04/15 04:10:29;;;;;;;;;;;18.10;34.90;19.80;98005.00;;;;5587096;25;2201;-40
2024/04/15 04:12:59;;;;;;;;;;;18.10;34.70;19.80;97996.00;;;;5575761;25;2160;-42
2024/04/15 04:15:26;;;;;;;;;;;18.10;34.60;19.80;97996.00;;;;5585715;25;1993;-40
2024/04/15 04:17:59;;;;;;;;;;;18.10;34.50;19.80;98003.00;;;;5588004;25;2145;-42
2024/04/15 04:20:26;;;;;;;;;;;18.20;34.50;19.80;98013.00;;;;5587710;25;2191;-40
2024/04/15 04:22:56;;;;;;;;;;;18.20;34.40;19.80;98023.00;;;;5592558;25;2367;-39
2024/04/15 04:25:24;;;;;;;;;;;18.20;34.20;19.80;98024.00;;;;5586193;25;2303;-40
2024/04/15 04:27:54;;;;;;;;;;;18.20;34.30;19.80;98035.00;;;;5582139;25;2362;-40
2024/04/15 04:30:22;;;;;;;;;;;18.10;34.60;19.70;98035.00;;;;5574093;25;2187;-40
2024/04/15 04:32:54;;;;;;;;;;;18.10;34.90;19.70;98036.00;;;;5588304;25;2009;-41
2024/04/15 04:35:24;;;;;;;;;;;18.10;35.30;19.70;98034.00;;;;5582125;25;2357;-40
2024/04/15 04:37:54;;;;;;;;;;;18.00;35.60;19.60;98034.00;;;;5591645;25;2269;-40
2024/04/15 04:40:24;;;;;;;;;;;18.00;36.10;19.60;98032.00;;;;5584918;25;2401;-40
2024/04/15 04:42:51;;;;;;;;;;;17.90;35.90;19.70;98029.00;;;;5585910;25;2221;-41
2024/04/15 04:45:21;;;;;;;;;;;18.00;35.40;19.70;98023.00;;;;5587462;25;2206;-41
2024/04/15 04:47:48;;;;;;;;;;;18.00;35.20;19.70;98039.00;;;;5585148;25;2224;-45
2024/04/15 04:50:20;;;;;;;;;;;18.00;35.00;19.70;98036.00;;;;5581593;25;3343;-39
2024/04/15 04:52:50;;;;;;;;;;;18.00;34.90;19.70;98045.00;;;;5581937;25;2329;-40
2024/04/15 04:55:20;;;;;;;;;;;18.10;34.80;19.70;98055.00;;;;5586626;25;2007;-41
2024/04/15 04:57:48;;;;;;;;;;;18.10;34.60;19.70;98041.00;;;;5590255;25;2053;-41
2024/04/15 05:00:18;;;;;;;;;;;18.10;34.50;19.80;98043.00;;;;5580860;25;2316;-41
2024/04/15 05:02:45;;;;;;;;;;;18.10;34.40;19.70;98044.00;;;;5585456;25;1567;-39
2024/04/15 05:05:16;;;;;;;;;;;18.10;35.10;19.70;98044.00;;;;5583705;25;2253;-40
2024/04/15 05:07:43;;;;;;;;;;;18.10;35.40;19.60;98047.00;;;;5578465;25;2461;-40
2024/04/15 05:10:16;;;;;;;;;;;18.00;35.70;19.70;98045.00;;;;5582360;25;2293;-41
2024/04/15 05:12:43;;;;;;;;;;;18.00;35.10;19.70;98042.00;;;;5583273;25;2171;-42
2024/04/15 05:15:13;;;;;;;;;;;18.00;35.00;19.70;98052.00;;;;5587309;25;2404;-40
2024/04/15 05:17:40;;;;;;;;;;;18.00;34.90;19.70;98053.00;;;;5585715;25;2933;-41
2024/04/15 05:20:11;;;;;;;;;;;18.10;34.80;19.70;98049.00;;;;5578443;25;2349;-40
2024/04/15 05:22:39;;;;;;;;;;;18.10;34.60;19.70;98053.00;;;;5591077;25;2204;-40
2024/04/15 05:25:09;;;;;;;;;;;18.10;34.50;19.70;98068.00;;;;5584148;25;2308;-40
2024/04/15 05:27:39;;;;;;;;;;;18.10;34.40;19.80;98069.00;;;;5584794;25;1965;-40
2024/04/15 05:30:10;;;;;;;;;;;18.10;34.20;19.70;98068.00;;;;5587662;25;2370;-41
2024/04/15 05:32:37;;;;;;;;;;;18.10;34.80;19.70;98055.00;;;;5594167;25;2334;-41
2024/04/15 05:35:08;;;;;;;;;;;18.00;35.20;19.60;98068.00;;;;5591226;25;2229;-41
2024/04/15 05:37:35;;;;;;;;;;;18.00;36.10;19.70;98059.00;;;;5595302;25;2334;-39
2024/04/15 05:40:05;;;;;;;;;;;18.00;35.30;19.70;98075.00;;;;5583125;25;2363;-40
2024/04/15 05:42:33;;;;;;;;;;;18.00;35.00;19.70;98075.00;;;;5588064;25;2167;-40
2024/04/15 05:45:06;;;;;;;;;;;18.00;34.90;19.70;98070.00;;;;5590451;25;2426;-40
2024/04/15 05:47:33;;;;;;;;;;;18.10;34.80;19.70;98065.00;;;;5593514;25;2292;-41
2024/04/15 05:50:03;;;;;;;;;;;18.10;34.60;19.70;98060.00;;;;5595534;25;2380;-40
2024/04/15 05:52:32;;;;;;;;;;;18.10;34.50;19.70;98074.00;;;;5579518;25;2430;-43
2024/04/15 05:55:02;;;;;;;;;;;18.10;34.30;19.80;98066.00;;;;5587170;25;2581;-40
2024/04/15 05:57:29;;;;;;;;;;;18.20;34.20;19.70;98068.00;;;;5591897;25;2196;-41
2024/04/15 05:59:59;;;;;;;;;;;18.10;34.30;19.70;98069.00;;;;5590616;25;2144;-40
2024/04/15 06:02:29;;;;;;;;;;;18.10;34.60;19.70;98069.00;;;;5587585;25;2229;-40
2024/04/15 06:04:59;;;;;;;;;;;18.10;35.50;19.70;98065.00;;;;5585110;25;2254;-38
2024/04/15 06:07:26;;;;;;;;;;;18.00;34.80;19.70;98080.00;;;;5590346;25;2154;-41
2024/04/15 06:09:56;;;;;;;;;;;18.00;34.60;19.70;98077.00;;;;5588549;25;2288;-40
2024/04/15 06:12:24;;;;;;;;;;;18.00;34.50;19.70;98074.00;;;;5591180;25;2317;-40
2024/04/15 06:14:54;;;;;;;;;;;18.00;34.30;19.70;98080.00;;;;5594381;25;2209;-42
2024/04/15 06:17:22;;;;;;;;;;;18.10;34.30;19.70;98084.00;;;;5593554;25;2336;-41
2024/04/15 06:19:54;;;;;;;;;;;18.10;34.20;19.70;98083.00;;;;5578208;25;1987;-40
2024/04/15 06:22:22;;;;;;;;;;;18.10;34.10;19.80;98084.00;;;;5585308;25;2265;-41
2024/04/15 06:24:52;;;;;;;;;;;18.10;34.00;19.70;98089.00;;;;5594483;25;2201;-40
2024/04/15 06:27:19;;;;;;;;;;;18.10;34.00;19.70;98091.00;;;;5591767;25;2199;-40
2024/04/15 06:29:50;;;;;;;;;;;18.10;34.70;19.70;98087.00;;;;5590114;25;1870;-39
2024/04/15 06:32:17;;;;;;;;;;;18.00;35.00;19.60;98106.00;;;;5588072;25;1950;-42
2024/04/15 06:34:47;;;;;;;;;;;18.00;35.50;19.60;98095.00;;;;5588244;25;2159;-40
2024/04/15 06:37:17;;;;;;;;;;;17.90;35.80;19.50;98092.00;;;;5591645;25;2208;-42
2024/04/15 06:39:47;;;;;;;;;;;17.90;36.00;19.50;98082.00;;;;5591503;25;2355;-40
2024/04/15 06:42:17;;;;;;;;;;;17.90;36.30;19.60;98085.00;;;;5591646;25;2325;-40
2024/04/15 06:44:45;;;;;;;;;;;17.90;35.50;19.60;98088.00;;;;5586485;25;2052;-39
2024/04/15 06:47:14;;;;;;;;;;;17.90;35.30;19.60;98081.00;;;;5587774;25;2479;-42
2024/04/15 06:49:42;;;;;;;;;;;18.00;35.10;19.60;98082.00;;;;5592612;25;2283;-39
2024/04/15 06:52:12;;;;;;;;;;;18.00;34.90;19.60;98075.00;;;;5595114;25;2118;-41
2024/04/15 06:54:42;;;;;;;;;;;18.00;34.70;19.60;98060.00;;;;5582696;25;2200;-40
2024/04/15 06:57:12;;;;;;;;;;;18.00;34.60;19.70;98065.00;;;;5595454;25;2112;-41
2024/04/15 06:59:39;;;;;;;;;;;18.10;34.50;19.70;98088.00;;;;5587771;25;2405;-39
2024/04/15 07:02:13;;;;;;;;;;;18.10;34.40;19.70;98084.00;;;;5588565;25;2252;-40
2024/04/15 07:04:40;;;;;;;;;;;18.10;35.00;19.60;98081.00;;;;5586024;25;2182;-39
2024/04/15 07:07:10;;;;;;;;;;;18.00;35.10;19.60;98086.00;;;;5581835;25;2190;-41
2024/04/15 07:09:37;;;;;;;;;;;18.00;35.70;19.60;98081.00;;;;5593164;25;2187;-39
2024/04/15 07:12:10;;;;;;;;;;;18.00;35.30;19.70;98075.00;;;;5592389;25;2282;-40
2024/04/15 07:14:37;;;;;;;;;;;18.00;34.90;19.70;98078.00;;;;5590908;25;2347;-39
2024/04/15 07:17:07;;;;;;;;;;;18.00;34.80;19.70;98078.00;;;;5591758;25;2066;-41
2024/04/15 07:19:35;;;;;;;;;;;18.00;34.60;19.70;98081.00;;;;5586049;25;2179;-40
2024/04/15 07:22:05;;;;;;;;;;;18.10;34.60;19.70;98082.00;;;;5591476;25;2272;-40
2024/04/15 07:24:33;;;;;;;;;;;18.00;34.30;19.70;98084.00;;;;5585636;25;2004;-39
2024/04/15 07:27:04;;;;;;;;;;;18.10;34.30;19.80;98094.00;;;;5594651;25;2136;-39
2024/04/15 07:29:34;;;;;;;;;;;18.10;34.20;19.80;98095.00;;;;5585517;25;2174;-41
2024/04/15 07:32:06;;;;;;;;;;;18.10;34.50;19.70;98076.00;;;;5583532;25;2149;-39
2024/04/15 07:34:34;;;;;;;;;;;18.10;35.00;19.70;98091.00;;;;5591075;25;2146;-43
2024/04/15 07:37:05;;;;;;;;;;;18.00;35.40;19.70;98087.00;;;;5591634;25;2397;-39
2024/04/15 07:39:32;;;;;;;;;;;18.00;35.30;19.70;98089.00;;;;5590316;25;2238;-40
2024/04/15 07:42:02;;;;;;;;;;;18.00;35.00;19.70;98090.00;;;;5585040;25;2911;-41
2024/04/15 07:44:30;;;;;;;;;;;18.00;34.80;19.80;98085.00;;;;5582363;25;1942;-43
2024/04/15 07:47:02;;;;;;;;;;;18.10;34.70;19.80;98086.00;;;;5590080;25;2125;-40
2024/04/15 07:49:30;;;;;;;;;;;18.10;34.60;19.80;98085.00;;;;5587515;25;2178;-39
2024/04/15 07:51:59;;;;;;;;;;;18.10;34.40;19.80;98075.00;;;;5580286;25;2042;-41
2024/04/15 07:54:27;;;;;;;;;;;18.10;34.20;19.80;98060.00;;;;5587725;25;2021;-39
2024/04/15 07:56:57;;;;;;;;;;;18.10;34.10;19.80;98064.00;;;;5579934;25;2194;-41
2024/04/15 07:59:24;;;;;;;;;;;18.20;34.20;19.80;98052.00;;;;5591487;25;2115;-41
2024/04/15 08:01:54;;;;;;;;;;;18.20;34.50;19.70;98056.00;;;;5587140;25;1964;-41
2024/04/15 08:04:24;;;;;;;;;;;18.10;34.80;19.70;98063.00;;;;5589993;25;2180;-41
2024/04/15 08:06:54;;;;;;;;;;;18.00;34.90;19.80;98052.00;;;;5590719;25;2197;-41
2024/04/15 08:09:39;;;;;;;;;;;18.00;34.50;19.80;98052.00;;;;5590479;25;1548;-40
2024/04/15 08:12:11;;;;;;;;;;;18.10;34.50;19.80;98069.00;;;;5591486;25;2077;-41
2024/04/15 08:14:38;;;;;;;;;;;18.10;34.30;19.80;98065.00;;;;5588336;25;2217;-40
2024/04/15 08:17:08;;;;;;;;;;;18.20;34.30;19.80;98064.00;;;;5591979;25;2360;-40
2024/04/15 08:19:39;;;;;;;;;;;18.20;34.20;19.80;98057.00;;;;5583263;25;2343;-40
2024/04/15 08:22:09;;;;;;;;;;;18.20;34.10;19.80;98058.00;;;;5588177;25;2230;-41
2024/04/15 08:24:36;;;;;;;;;;;18.20;34.00;19.80;98053.00;;;;5588243;25;2327;-41
2024/04/15 08:27:07;;;;;;;;;;;18.20;33.90;19.80;98055.00;;;;5585807;25;2162;-40
2024/04/15 08:29:34;;;;;;;;;;;18.10;34.50;19.80;98063.00;;;;5583735;25;2195;-42
2024/04/15 08:32:04;;;;;;;;;;;18.10;34.70;19.70;98058.00;;;;5587703;25;2388;-40
2024/04/15 08:34:31;;;;;;;;;;;18.10;35.40;19.70;98059.00;;;;5588420;25;2519;-42
2024/04/15 08:37:04;;;;;;;;;;;18.00;35.70;19.70;98041.00;;;;5589054;25;2185;-39
2024/04/15 08:39:32;;;;;;;;;;;18.00;36.10;19.60;98032.00;;;;5586523;25;2198;-43
2024/04/15 08:42:07;;;;;;;;;;;17.90;36.10;19.70;98037.00;;;;5589768;25;1680;-41
2024/04/15 08:44:34;;;;;;;;;;;18.00;35.60;19.70;98032.00;;;;5582548;25;2240;-41
2024/04/15 08:47:09;;;;;;;;;;;18.00;35.30;19.70;98040.00;;;;5588232;25;2368;-40
2024/04/15 08:49:37;;;;;;;;;;;18.10;35.20;19.80;98031.00;;;;5589290;25;2268;-41
2024/04/15 08:52:10;;;;;;;;;;;18.10;35.00;19.80;98032.00;;;;5588558;25;2237;-41
2024/04/15 08:54:38;;;;;;;;;;;18.20;34.80;19.80;98018.00;;;;5587368;25;2227;-42
2024/04/15 08:57:08;;;;;;;;;;;18.20;34.60;19.90;98005.00;;;;5590571;25;2401;-40
2024/04/15 08:59:35;;;;;;;;;;;18.20;34.50;19.90;97996.00;;;;5590191;25;2302;-41
2024/04/15 09:02:06;;;;;;;;;;;18.20;34.30;19.90;98005.00;;;;5588727;25;1968;-40
2024/04/15 09:04:33;;;;;;;;;;;18.20;34.40;19.90;97997.00;;;;5584359;25;2201;-40
2024/04/15 09:07:04;;;;;;;;;;;18.20;34.70;19.90;98000.00;;;;5588040;25;1959;-42
2024/04/15 09:09:34;;;;;;;;;;;18.20;35.00;19.90;97979.00;;;;5588089;25;2090;-45
2024/04/15 09:12:04;;;;;;;;;;;18.20;35.00;19.90;97978.00;;;;5586232;25;2190;-41
2024/04/15 09:14:31;;;;;;;;;;;18.20;34.80;19.90;97974.00;;;;5588342;25;2012;-43
2024/04/15 09:17:05;;;;;;;;;;;18.20;34.60;19.90;97963.00;;;;5592626;25;2380;-40
2024/04/15 09:19:32;;;;;;;;;;;18.20;34.50;20.00;97961.00;;;;5583190;25;2263;-42
2024/04/15 09:22:02;;;;;;;;;;;18.20;34.30;20.00;97963.00;;;;5589951;25;2278;-41
2024/04/15 09:24:30;;;;;;;;;;;18.30;34.30;20.00;97955.00;;;;5591689;25;2327;-43
2024/04/15 09:27:03;;;;;;;;;;;18.30;34.20;20.00;97964.00;;;;5586610;25;2372;-39
2024/04/15 09:29:30;;;;;;;;;;;18.30;34.10;20.00;97962.00;;;;5590320;25;2204;-41
2024/04/15 09:32:00;;;;;;;;;;;18.30;34.40;20.00;97969.00;;;;5587850;25;2418;-40
2024/04/15 09:34:28;;;;;;;;;;;18.30;34.70;20.00;97963.00;;;;5592409;25;2427;-40
2024/04/15 09:36:59;;;;;;;;;;;18.20;35.00;19.90;97953.00;;;;5591068;25;2332;-39
2024/04/15 09:39:26;;;;;;;;;;;18.20;35.20;20.00;97945.00;;;;5581488;25;2168;-40
2024/04/15 09:41:57;;;;;;;;;;;18.20;34.70;20.00;97933.00;;;;5590804;25;2206;-40
2024/04/15 09:44:29;;;;;;;;;;;18.30;34.70;20.00;97943.00;;;;5587192;25;2661;-40
2024/04/15 09:46:59;;;;;;;;;;;18.30;34.60;20.00;97928.00;;;;5589298;25;2333;-40
2024/04/15 09:49:26;;;;;;;;;;;18.30;34.40;20.00;97935.00;;;;5589881;25;2212;-40
2024/04/15 09:51:56;;;;;;;;;;;18.30;34.30;20.00;97915.00;;;;5585684;25;2311;-40
2024/04/15 09:54:30;;;;;;;;;;;18.30;34.10;20.00;97930.00;;;;5591641;25;2280;-40
2024/04/15 09:57:04;;;;;;;;;;;18.30;34.00;20.00;97918.00;;;;5586492;25;2149;-40
2024/04/15 09:59:35;;;;;;;;;;;18.40;34.10;20.00;97924.00;;;;5590271;25;2183;-44
2024/04/15 10:02:06;;;;;;;;;;;18.30;34.70;20.00;97920.00;;;;5574136;25;3298;-41
2024/04/15 10:04:34;;;;;;;;;;;18.30;34.90;20.00;97919.00;;;;5589504;25;2112;-40
2024/04/15 10:07:05;;;;;;;;;;;18.30;35.10;20.00;97910.00;;;;5591872;25;2216;-41
2024/04/15 10:09:33;;;;;;;;;;;18.30;34.80;20.00;97911.00;;;;5589046;25;2175;-40
2024/04/15 10:12:02;;;;;;;;;;;18.30;34.80;20.10;97892.00;;;;5587962;25;1560;-40
2024/04/15 10:14:33;;;;;;;;;;;18.30;34.60;20.10;97878.00;;;;5589845;25;2062;-40
2024/04/15 10:17:04;;;;;;;;;;;18.40;34.40;20.10;97878.00;;;;5589900;25;2248;-40
2024/04/15 10:19:35;;;;;;;;;;;18.40;34.30;20.10;97885.00;;;;5593304;25;2238;-49
2024/04/15 10:22:03;;;;;;;;;;;18.40;34.10;20.10;97886.00;;;;5590715;25;2242;-41
2024/04/15 10:24:33;;;;;;;;;;;18.40;34.00;20.10;97876.00;;;;5592344;25;2308;-44
2024/04/15 10:27:03;;;;;;;;;;;18.40;34.00;20.10;97876.00;;;;5590433;25;2162;-41
2024/04/15 10:29:34;;;;;;;;;;;18.50;34.10;20.10;97866.00;;;;5595608;25;2279;-41
2024/04/15 10:32:06;;;;;;;;;;;18.40;34.30;20.10;97856.00;;;;5594788;25;2359;-40
2024/04/15 10:34:42;;;;;;;;;;;18.40;34.80;20.00;97842.00;;;;5594993;25;2158;-40
2024/04/15 10:37:10;;;;;;;;;;;18.30;35.10;20.00;97838.00;;;;5596309;25;2008;-39
2024/04/15 10:39:46;;;;;;;;;;;18.30;35.50;20.00;97838.00;;;;5593190;25;2368;-40
2024/04/15 10:42:13;;;;;;;;;;;18.20;35.60;20.00;97834.00;;;;5594903;25;1543;-40
2024/04/15 10:44:43;;;;;;;;;;;18.20;35.20;20.00;97825.00;;;;5593934;25;1951;-40
2024/04/15 10:47:14;;;;;;;;;;;18.30;35.10;20.00;97825.00;;;;5595247;25;2458;-40
2024/04/15 10:49:44;;;;;;;;;;;18.30;34.90;20.00;97821.00;;;;5589701;25;2174;-41
2024/04/15 10:52:11;;;;;;;;;;;18.30;34.80;20.00;97826.00;;;;5592924;25;2385;-41
2024/04/15 10:54:41;;;;;;;;;;;18.30;34.60;20.10;97823.00;;;;5594272;25;2274;-41
2024/04/15 10:57:09;;;;;;;;;;;18.40;34.50;20.10;97814.00;;;;5590498;25;1973;-40
2024/04/15 10:59:38;;;;;;;;;;;18.40;34.40;20.10;97802.00;;;;5594159;25;1963;-39
2024/04/15 11:02:07;;;;;;;;;;;18.40;34.30;20.10;97810.00;;;;5584731;25;2364;-38
2024/04/15 11:04:40;;;;;;;;;;;18.40;34.80;20.10;97801.00;;;;5589932;25;2365;-39
2024/04/15 11:07:07;;;;;;;;;;;18.40;35.00;20.10;97797.00;;;;5592880;25;2288;-40
2024/04/15 11:09:38;;;;;;;;;;;18.40;35.10;20.10;97802.00;;;;5592164;25;2227;-40
2024/04/15 11:12:06;;;;;;;;;;;18.40;35.10;20.20;97784.00;;;;5586360;25;2327;-39
2024/04/15 11:14:36;;;;;;;;;;;18.40;34.80;20.20;97784.00;;;;5591494;25;2284;-42
2024/04/15 11:17:04;;;;;;;;;;;18.40;34.70;20.20;97788.00;;;;5592231;25;2207;-39
2024/04/15 11:19:40;;;;;;;;;;;18.50;34.60;20.20;97775.00;;;;5589625;25;2170;-41
2024/04/15 11:22:08;;;;;;;;;;;18.50;34.40;20.20;97774.00;;;;5591074;25;2101;-40
2024/04/15 11:24:39;;;;;;;;;;;18.50;34.30;20.20;97768.00;;;;5594433;25;2358;-39
2024/04/15 11:27:07;;;;;;;;;;;18.50;34.20;20.20;97757.00;;;;5589297;25;1977;-39
2024/04/15 11:29:37;;;;;;;;;;;18.50;34.00;20.20;97750.00;;;;5592752;25;2233;-41
2024/04/15 11:32:22;;;;;;;;;;;18.50;34.30;20.20;97746.00;;;;5589785;25;2216;-40
2024/04/15 11:34:55;;;;;;;;;;;18.50;34.60;20.20;97739.00;;;;5587209;25;1674;-39
2024/04/15 11:37:22;;;;;;;;;;;18.50;34.90;20.20;97734.00;;;;5592715;25;2164;-40
2024/04/15 11:39:53;;;;;;;;;;;18.50;35.00;20.20;97722.00;;;;5589408;25;2230;-40
2024/04/15 11:42:20;;;;;;;;;;;18.50;34.70;20.20;97723.00;;;;5588514;25;2250;-44
2024/04/15 11:44:51;;;;;;;;;;;18.50;34.60;20.30;97717.00;;;;5588600;25;2170;-41
2024/04/15 11:47:19;;;;;;;;;;;18.50;34.50;20.30;97705.00;;;;5594875;25;1976;-38
2024/04/15 11:49:49;;;;;;;;;;;18.50;34.30;20.30;97685.00;;;;5591478;25;2079;-40
2024/04/15 11:52:22;;;;;;;;;;;18.50;34.20;20.30;97712.00;;;;5594093;25;1958;-39
2024/04/15 11:54:50;;;;;;;;;;;18.50;34.00;20.30;97708.00;;;;5590981;25;2235;-38
2024/04/15 11:57:20;;;;;;;;;;;18.60;34.00;20.30;97683.00;;;;5594038;25;2686;-40
2024/04/15 11:59:47;;;;;;;;;;;18.60;34.30;20.30;97684.00;;;;5588439;25;1739;-41
2024/04/15 12:02:18;;;;;;;;;;;18.60;34.60;20.30;97669.00;;;;5583170;25;2308;-40
2024/04/15 12:04:46;;;;;;;;;;;18.60;34.80;20.30;97662.00;;;;5590815;25;2232;-40
2024/04/15 12:07:16;;;;;;;;;;;18.50;34.90;20.30;97661.00;;;;5593171;25;2110;-40
2024/04/15 12:09:48;;;;;;;;;;;18.50;34.60;20.30;97664.00;;;;5592043;25;2144;-40
2024/04/15 12:12:20;;;;;;;;;;;18.60;34.60;20.30;97659.00;;;;5590826;25;2176;-40
2024/04/15 12:14:49;;;;;;;;;;;18.50;34.30;20.30;97659.00;;;;5589474;25;2358;-40
2024/04/15 12:17:17;;;;;;;;;;;18.60;34.20;20.40;97647.00;;;;5590047;25;2288;-40
2024/04/15 12:19:47;;;;;;;;;;;18.60;34.10;20.40;97634.00;;;;5589134;25;2201;-40